Time;durP1;ratioP1;P1;durP2;ratioP2;P2;SDS_P1;SDS_P2;PMS_P1;PMS_P2;Temp;Humidity;BMP_temperature;BMP_pressure;BME280_temperature;BME280_humidity;BME280_pressure;Samples;Min_cycle;Max_cycle;Signal;HPM_P1;HPM_P2
2022/03/11 00:02:08;;;;;;;13.20;7.10;;;8.10;43.50;;;;;;4988855;28;20172;-71
2022/03/11 00:04:33;;;;;;;11.10;7.13;;;8.00;44.80;;;;;;4988736;28;20191;-71
2022/03/11 00:06:59;;;;;;;12.03;7.57;;;8.20;46.00;;;;;;4992449;28;20202;-71
2022/03/11 00:09:24;;;;;;;11.97;8.00;;;8.00;45.90;;;;;;4990854;28;20194;-71
2022/03/11 00:11:50;;;;;;;13.30;8.00;;;8.00;46.20;;;;;;4989130;28;20243;-71
2022/03/11 00:14:15;;;;;;;10.60;7.90;;;8.30;47.20;;;;;;4989327;28;20183;-70
2022/03/11 00:16:41;;;;;;;20.53;7.87;;;7.90;48.20;;;;;;4988891;28;20345;-70
2022/03/11 00:19:07;;;;;;;12.87;8.03;;;7.90;48.90;;;;;;4987560;28;20618;-71
2022/03/11 00:21:32;;;;;;;17.60;9.00;;;7.90;49.30;;;;;;4988733;28;20174;-71
2022/03/11 00:23:58;;;;;;;11.17;7.10;;;8.00;50.40;;;;;;4986654;28;20187;-71
2022/03/11 00:26:24;;;;;;;12.57;7.73;;;8.30;50.20;;;;;;4989427;28;20228;-72
2022/03/11 00:28:50;;;;;;;13.63;7.57;;;7.90;49.90;;;;;;4985642;28;20203;-71
2022/03/11 00:31:15;;;;;;;13.70;8.93;;;7.80;50.50;;;;;;4988265;28;20450;-71
2022/03/11 00:33:41;;;;;;;12.63;8.57;;;7.80;51.20;;;;;;4988261;28;20191;-71
2022/03/11 00:36:06;;;;;;;13.90;8.00;;;7.80;51.30;;;;;;4988418;28;20286;-71
2022/03/11 00:38:33;;;;;;;12.13;7.80;;;7.80;51.80;;;;;;4981350;28;20697;-71
2022/03/11 00:40:58;;;;;;;15.00;8.67;;;7.80;52.60;;;;;;4986862;28;20433;-71
2022/03/11 00:43:24;;;;;;;13.63;8.57;;;7.80;52.80;;;;;;4987385;28;20509;-71
2022/03/11 00:45:50;;;;;;;15.20;9.20;;;7.70;51.40;;;;;;4987991;28;20183;-71
2022/03/11 00:48:16;;;;;;;14.20;7.90;;;7.70;53.70;;;;;;4987918;28;20189;-71
2022/03/11 00:50:42;;;;;;;19.90;8.30;;;7.70;54.80;;;;;;4988014;28;20422;-70
2022/03/11 00:53:07;;;;;;;13.57;8.70;;;7.70;54.80;;;;;;4986760;28;20201;-71
2022/03/11 00:55:33;;;;;;;16.30;7.63;;;7.70;55.10;;;;;;4988160;28;20285;-70
2022/03/11 00:57:58;;;;;;;14.90;8.90;;;7.60;55.20;;;;;;4987479;28;20194;-70
2022/03/11 01:00:24;;;;;;;16.90;8.90;;;7.70;55.30;;;;;;4988250;28;20285;-70
2022/03/11 01:02:50;;;;;;;15.53;8.77;;;7.60;55.20;;;;;;4987734;28;20179;-70
2022/03/11 01:05:15;;;;;;;12.87;8.20;;;7.60;55.60;;;;;;4986588;28;20303;-71
2022/03/11 01:07:41;;;;;;;14.60;8.93;;;7.50;56.50;;;;;;4989899;28;20294;-70
2022/03/11 01:10:07;;;;;;;13.63;8.70;;;7.50;56.40;;;;;;4987275;28;20190;-70
2022/03/11 01:12:33;;;;;;;12.77;8.40;;;7.50;57.80;;;;;;4986042;28;20269;-70
2022/03/11 01:14:58;;;;;;;14.30;9.00;;;7.40;57.60;;;;;;4988058;28;21011;-71
2022/03/11 01:17:24;;;;;;;14.57;8.20;;;7.50;57.80;;;;;;4984661;28;20673;-70
2022/03/11 01:19:50;;;;;;;14.57;8.90;;;7.40;58.30;;;;;;4986977;28;20236;-70
2022/03/11 01:22:15;;;;;;;14.27;9.20;;;7.40;58.50;;;;;;4987799;28;20178;-71
2022/03/11 01:24:41;;;;;;;13.10;9.23;;;7.40;59.20;;;;;;4985831;28;20270;-70
2022/03/11 01:27:06;;;;;;;13.47;8.73;;;7.30;57.30;;;;;;4986447;28;20210;-71
2022/03/11 01:29:32;;;;;;;12.83;8.27;;;7.30;59.80;;;;;;4986025;28;20183;-70
2022/03/11 01:31:57;;;;;;;13.83;8.53;;;7.30;60.60;;;;;;4987471;28;20189;-70
2022/03/11 01:34:23;;;;;;;16.50;9.23;;;7.30;61.20;;;;;;4987613;28;20214;-70
2022/03/11 01:36:49;;;;;;;14.83;9.27;;;7.20;62.80;;;;;;4987111;28;20328;-70
2022/03/11 01:39:14;;;;;;;13.77;9.70;;;7.10;61.50;;;;;;4992996;28;20175;-71
2022/03/11 01:41:40;;;;;;;13.70;9.03;;;7.10;62.60;;;;;;4987416;28;20179;-70
2022/03/11 01:44:08;;;;;;;19.00;9.00;;;7.10;65.10;;;;;;4986059;28;20226;-70
2022/03/11 01:46:35;;;;;;;17.23;9.90;;;7.10;65.40;;;;;;4987414;28;20622;-71
2022/03/11 01:49:03;;;;;;;16.53;9.00;;;7.00;65.80;;;;;;4985987;28;20967;-71
2022/03/11 01:51:30;;;;;;;17.63;10.77;;;7.00;65.30;;;;;;4978737;28;20821;-70
2022/03/11 01:53:56;;;;;;;15.90;9.93;;;7.00;66.50;;;;;;4986416;28;20915;-70
2022/03/11 01:56:23;;;;;;;15.70;10.50;;;7.00;65.70;;;;;;4977138;28;20470;-70
2022/03/11 01:58:51;;;;;;;16.20;10.43;;;7.00;66.00;;;;;;4987015;28;20187;-70
2022/03/11 02:01:20;;;;;;;18.13;10.40;;;6.90;66.60;;;;;;5002486;28;20437;-71
2022/03/11 02:03:47;;;;;;;15.80;11.00;;;6.90;66.80;;;;;;5004778;28;20440;-70
2022/03/11 02:06:13;;;;;;;20.13;10.83;;;6.90;67.40;;;;;;4991250;28;20468;-70
2022/03/11 02:08:39;;;;;;;15.63;10.67;;;6.80;67.20;;;;;;4998620;28;20452;-70
2022/03/11 02:11:06;;;;;;;18.10;11.77;;;6.80;68.00;;;;;;4991362;28;20927;-71
2022/03/11 02:13:52;;;;;;;30.90;12.20;;;6.80;68.60;;;;;;4991496;28;20495;-70
2022/03/11 02:16:20;;;;;;;18.20;11.13;;;6.80;70.10;;;;;;4991049;28;20560;-71
2022/03/11 02:18:47;;;;;;;21.70;11.40;;;6.70;70.50;;;;;;4990991;28;20484;-70
2022/03/11 02:21:14;;;;;;;19.37;11.43;;;6.70;70.70;;;;;;4989533;28;20464;-71
2022/03/11 02:23:52;;;;;;;17.60;10.57;;;6.60;71.40;;;;;;4983600;28;20475;-70
2022/03/11 02:26:19;;;;;;;17.67;11.07;;;6.60;71.40;;;;;;4996413;28;20936;-70
2022/03/11 02:28:46;;;;;;;24.77;11.23;;;6.60;71.90;;;;;;4990530;28;20516;-70
2022/03/11 02:31:12;;;;;;;19.13;11.30;;;6.60;72.10;;;;;;4991103;28;20442;-71
2022/03/11 02:33:39;;;;;;;22.40;11.67;;;6.50;72.30;;;;;;4990864;28;20589;-71
2022/03/11 02:36:05;;;;;;;17.80;11.80;;;6.50;72.00;;;;;;4989136;28;20465;-70
2022/03/11 02:38:31;;;;;;;18.87;11.80;;;6.80;71.80;;;;;;5002678;28;20528;-70
2022/03/11 02:40:56;;;;;;;19.20;11.30;;;6.40;71.90;;;;;;4989655;28;20592;-71
2022/03/11 02:43:23;;;;;;;20.60;13.13;;;6.40;72.90;;;;;;4990460;28;20186;-70
2022/03/11 02:45:49;;;;;;;20.10;12.83;;;6.30;70.70;;;;;;4991052;28;20205;-70
2022/03/11 02:48:14;;;;;;;21.63;12.60;;;6.30;73.80;;;;;;4988268;28;20474;-71
2022/03/11 02:50:40;;;;;;;22.97;13.20;;;6.30;73.90;;;;;;4990658;28;20188;-71
2022/03/11 02:53:06;;;;;;;22.07;14.00;;;6.20;74.70;;;;;;4989740;28;20173;-71
2022/03/11 02:55:31;;;;;;;20.23;12.67;;;6.20;72.50;;;;;;4990142;28;20218;-71
2022/03/11 02:57:57;;;;;;;22.17;12.90;;;6.10;74.40;;;;;;4990672;28;20275;-71
2022/03/11 03:00:23;;;;;;;17.70;12.33;;;6.10;74.50;;;;;;4990594;28;20174;-70
2022/03/11 03:02:48;;;;;;;21.53;12.40;;;6.10;74.70;;;;;;4987947;28;20226;-70
2022/03/11 03:05:15;;;;;;;21.43;12.13;;;6.00;74.40;;;;;;4988882;28;20208;-71
2022/03/11 03:07:41;;;;;;;21.93;13.23;;;6.00;76.80;;;;;;4998157;28;20212;-70
2022/03/11 03:10:07;;;;;;;21.87;11.87;;;6.00;75.40;;;;;;4998049;28;20426;-70
2022/03/11 03:12:33;;;;;;;21.73;12.50;;;5.90;75.70;;;;;;4990312;28;20230;-71
2022/03/11 03:14:59;;;;;;;22.23;13.10;;;5.90;75.10;;;;;;4990349;28;20461;-70
2022/03/11 03:17:24;;;;;;;21.70;12.20;;;5.90;75.10;;;;;;4990360;28;20206;-70
2022/03/11 03:19:50;;;;;;;22.30;13.53;;;5.90;75.40;;;;;;4985706;28;20183;-70
2022/03/11 03:22:16;;;;;;;24.80;12.90;;;5.80;76.30;;;;;;4990263;28;20179;-70
2022/03/11 03:24:45;;;;;;;20.53;12.70;;;5.80;76.60;;;;;;4989470;28;20724;-71
2022/03/11 03:27:10;;;;;;;20.37;13.40;;;5.80;76.60;;;;;;4988796;28;20511;-71
2022/03/11 03:29:36;;;;;;;19.40;12.77;;;5.70;77.60;;;;;;4989876;28;20566;-71
2022/03/11 03:32:02;;;;;;;23.37;14.13;;;5.70;76.00;;;;;;4989125;28;20265;-70
2022/03/11 03:34:30;;;;;;;23.60;13.00;;;5.70;78.70;;;;;;4989894;28;20743;-70
2022/03/11 03:37:01;;;;;;;24.80;14.10;;;5.60;78.00;;;;;;4990090;28;20502;-70
2022/03/11 03:39:27;;;;;;;22.70;13.67;;;5.60;78.80;;;;;;4988212;28;20511;-70
2022/03/11 03:41:54;;;;;;;24.03;13.70;;;5.60;78.30;;;;;;4988485;28;20496;-71
2022/03/11 03:44:19;;;;;;;20.80;12.93;;;5.50;78.00;;;;;;4990235;28;20173;-70
2022/03/11 03:46:45;;;;;;;22.10;12.70;;;5.50;77.90;;;;;;4989726;28;21002;-71
2022/03/11 03:49:11;;;;;;;24.63;13.87;;;5.50;77.50;;;;;;4989430;28;20533;-70
2022/03/11 03:51:39;;;;;;;26.83;13.63;;;5.40;77.20;;;;;;4987577;28;20284;-70
2022/03/11 03:54:11;;;;;;;21.20;13.53;;;5.40;77.10;;;;;;4987651;28;20255;-70
2022/03/11 03:56:38;;;;;;;22.37;13.43;;;5.40;76.80;;;;;;4995714;28;20441;-70
2022/03/11 03:59:05;;;;;;;22.07;13.80;;;5.40;77.10;;;;;;4988787;28;20615;-70
2022/03/11 04:01:34;;;;;;;24.53;14.00;;;5.80;77.30;;;;;;4989565;28;20420;-71
2022/03/11 04:04:00;;;;;;;26.80;13.63;;;5.80;78.50;;;;;;4987918;28;20988;-70
2022/03/11 04:06:26;;;;;;;23.70;13.53;;;5.20;76.50;;;;;;4988834;28;20574;-70
2022/03/11 04:08:51;;;;;;;22.30;13.03;;;5.20;77.50;;;;;;4999395;28;20520;-70
2022/03/11 04:11:17;;;;;;;21.93;13.10;;;5.50;77.80;;;;;;4989745;28;20194;-70
2022/03/11 04:13:43;;;;;;;20.63;13.70;;;5.40;78.00;;;;;;4989563;28;20190;-70
2022/03/11 04:16:08;;;;;;;21.67;13.27;;;5.00;77.60;;;;;;4988664;28;20465;-71
2022/03/11 04:18:34;;;;;;;20.67;12.80;;;5.30;78.70;;;;;;4988595;28;20203;-70
2022/03/11 04:21:00;;;;;;;23.87;12.60;;;5.00;78.50;;;;;;4988249;28;20223;-71
2022/03/11 04:23:25;;;;;;;20.70;12.90;;;5.00;79.40;;;;;;4987441;28;20178;-70
2022/03/11 04:25:51;;;;;;;19.50;11.63;;;4.90;75.70;;;;;;4989310;28;20489;-70
2022/03/11 04:28:17;;;;;;;20.20;12.07;;;5.20;79.10;;;;;;4988736;28;20247;-70
2022/03/11 04:30:42;;;;;;;21.10;11.93;;;4.90;78.20;;;;;;4987429;28;20468;-70
2022/03/11 04:33:08;;;;;;;19.20;11.93;;;4.90;77.60;;;;;;4988985;28;20214;-71
2022/03/11 04:35:33;;;;;;;18.73;12.13;;;4.80;78.10;;;;;;4988394;28;20275;-71
2022/03/11 04:37:59;;;;;;;24.43;11.77;;;4.80;77.30;;;;;;4988726;28;20310;-70
2022/03/11 04:40:25;;;;;;;21.53;12.27;;;4.90;76.70;;;;;;4988327;28;20193;-70
2022/03/11 04:42:50;;;;;;;17.63;11.50;;;4.70;77.10;;;;;;4988524;28;20185;-70
2022/03/11 04:45:16;;;;;;;21.73;11.70;;;4.70;77.50;;;;;;4988783;28;20248;-70
2022/03/11 04:47:41;;;;;;;21.63;12.63;;;4.70;76.70;;;;;;4988410;28;20568;-70
2022/03/11 04:50:08;;;;;;;21.37;13.20;;;4.70;77.40;;;;;;4985095;28;20207;-71
2022/03/11 04:52:34;;;;;;;17.60;11.43;;;4.60;76.50;;;;;;4987844;28;20207;-70
2022/03/11 04:54:59;;;;;;;20.23;11.60;;;4.60;76.20;;;;;;4987700;28;21035;-71
2022/03/11 04:57:25;;;;;;;19.20;11.60;;;4.60;75.70;;;;;;4988846;28;20202;-71
2022/03/11 04:59:50;;;;;;;22.67;11.60;;;4.60;75.60;;;;;;4987790;28;20181;-70
2022/03/11 05:02:29;;;;;;;21.10;11.87;;;4.50;75.50;;;;;;4987780;28;20207;-71
2022/03/11 05:04:55;;;;;;;16.87;10.37;;;4.50;75.30;;;;;;4986190;28;20257;-70
2022/03/11 05:07:21;;;;;;;19.37;11.30;;;4.40;74.70;;;;;;4994497;28;20914;-70
2022/03/11 05:09:47;;;;;;;18.70;10.80;;;4.70;75.20;;;;;;4999148;28;20257;-70
2022/03/11 05:12:13;;;;;;;17.00;11.10;;;4.40;74.80;;;;;;4999418;28;20514;-70
2022/03/11 05:14:38;;;;;;;18.40;11.10;;;4.50;74.10;;;;;;4988222;28;20532;-70
2022/03/11 05:17:04;;;;;;;19.63;12.10;;;4.40;74.70;;;;;;4985355;28;20259;-70
2022/03/11 05:19:30;;;;;;;19.07;10.80;;;4.80;75.30;;;;;;4988171;28;20180;-70
2022/03/11 05:21:56;;;;;;;21.00;10.80;;;4.60;74.80;;;;;;4986409;28;20415;-70
2022/03/11 05:24:21;;;;;;;18.63;10.90;;;4.30;75.30;;;;;;4982373;28;20589;-70
2022/03/11 05:26:48;;;;;;;19.77;11.30;;;4.20;74.90;;;;;;5000754;28;20610;-70
2022/03/11 05:29:15;;;;;;;15.20;9.83;;;4.20;74.50;;;;;;4986277;28;20172;-70
2022/03/11 05:31:41;;;;;;;15.00;9.80;;;4.20;74.00;;;;;;4984920;28;20634;-70
2022/03/11 05:34:07;;;;;;;16.97;10.57;;;4.20;72.50;;;;;;4988092;28;20587;-70
2022/03/11 05:36:33;;;;;;;15.80;9.77;;;4.20;72.40;;;;;;4987176;28;20260;-70
2022/03/11 05:38:59;;;;;;;17.87;10.07;;;4.10;72.40;;;;;;4991107;28;20944;-70
2022/03/11 05:41:24;;;;;;;17.00;10.30;;;4.40;72.00;;;;;;4985871;28;20416;-70
2022/03/11 05:43:50;;;;;;;18.20;10.17;;;4.60;72.30;;;;;;4986721;28;20258;-71
2022/03/11 05:46:16;;;;;;;16.27;10.23;;;4.40;72.30;;;;;;4987355;28;20197;-71
2022/03/11 05:48:41;;;;;;;17.00;10.50;;;4.20;71.50;;;;;;4985779;28;20196;-70
2022/03/11 05:51:07;;;;;;;14.20;9.20;;;4.50;72.30;;;;;;4987462;28;20580;-70
2022/03/11 05:53:32;;;;;;;15.40;9.43;;;4.00;70.90;;;;;;4986993;28;20226;-70
2022/03/11 05:55:58;;;;;;;17.97;9.27;;;4.20;70.40;;;;;;4987165;28;20208;-70
2022/03/11 05:58:24;;;;;;;15.80;10.37;;;4.10;70.80;;;;;;4987729;28;20177;-71
2022/03/11 06:00:49;;;;;;;16.30;9.90;;;4.40;70.50;;;;;;4986206;28;20219;-70
2022/03/11 06:03:16;;;;;;;20.87;9.70;;;4.40;70.40;;;;;;4986816;28;20181;-70
2022/03/11 06:05:41;;;;;;;18.30;9.20;;;4.00;67.60;;;;;;4985342;28;20208;-70
2022/03/11 06:08:07;;;;;;;16.90;9.50;;;4.00;69.80;;;;;;4988498;28;20447;-70
2022/03/11 06:10:32;;;;;;;15.37;9.50;;;4.10;69.60;;;;;;4994446;28;20181;-70
2022/03/11 06:12:58;;;;;;;14.90;9.23;;;4.50;69.50;;;;;;4987430;28;20245;-70
2022/03/11 06:15:23;;;;;;;15.10;9.10;;;4.40;69.30;;;;;;4987198;28;20246;-71
2022/03/11 06:17:49;;;;;;;15.10;9.07;;;4.00;68.30;;;;;;4987531;28;20262;-70
2022/03/11 06:20:14;;;;;;;17.30;8.83;;;4.10;68.50;;;;;;4986471;28;20199;-70
2022/03/11 06:22:51;;;;;;;15.50;9.10;;;4.10;67.10;;;;;;4987103;28;20662;-70
2022/03/11 06:25:17;;;;;;;16.90;9.50;;;4.20;67.80;;;;;;4986934;28;20184;-70
2022/03/11 06:27:43;;;;;;;16.77;8.70;;;4.10;67.60;;;;;;4986483;28;20587;-71
2022/03/11 06:30:09;;;;;;;15.27;9.97;;;4.60;67.40;;;;;;4986833;28;20970;-71
2022/03/11 06:32:46;;;;;;;13.60;9.40;;;4.20;67.50;;;;;;4987390;28;20447;-73
2022/03/11 06:35:13;;;;;;;14.15;9.60;;;4.20;66.40;;;;;;4984784;28;20889;-71
2022/03/11 06:37:43;;;;;;;18.13;9.90;;;4.80;68.00;;;;;;4980776;28;20298;-70
2022/03/11 06:40:10;;;;;;;11.50;7.87;;;4.40;66.00;;;;;;4981523;28;20502;-73
2022/03/11 06:42:37;;;;;;;13.43;9.00;;;5.10;81.30;;;;;;4988380;28;20417;-71
2022/03/11 06:45:03;;;;;;;15.37;9.60;;;4.90;65.80;;;;;;4991393;28;20787;-72
2022/03/11 06:47:28;;;;;;;14.87;9.43;;;5.10;65.00;;;;;;4991541;28;20427;-71
2022/03/11 06:49:54;;;;;;;16.50;9.30;;;5.20;61.90;;;;;;4986678;28;20441;-72
2022/03/11 06:52:19;;;;;;;15.80;9.00;;;5.30;60.00;;;;;;4989976;28;20169;-72
2022/03/11 06:54:45;;;;;;;11.83;8.10;;;6.00;62.40;;;;;;4989805;28;20661;-72
2022/03/11 06:57:10;;;;;;;17.57;9.60;;;5.90;58.90;;;;;;4989356;28;20621;-71
2022/03/11 06:59:36;;;;;;;17.33;9.10;;;5.50;56.10;;;;;;4993458;28;20181;-71
2022/03/11 07:02:02;;;;;;;14.47;9.33;;;5.50;57.20;;;;;;4992709;28;20196;-71
2022/03/11 07:04:27;;;;;;;13.40;9.00;;;5.50;56.60;;;;;;4990780;28;20186;-71
2022/03/11 07:06:53;;;;;;;13.37;8.50;;;5.50;56.10;;;;;;4992120;28;20420;-70
2022/03/11 07:09:18;;;;;;;14.80;8.50;;;5.50;56.00;;;;;;4989342;28;20184;-71
2022/03/11 07:11:46;;;;;;;12.30;8.43;;;5.60;56.10;;;;;;4985926;28;20321;-71
2022/03/11 07:14:12;;;;;;;13.80;8.47;;;5.80;54.60;;;;;;5001520;28;20225;-71
2022/03/11 07:16:37;;;;;;;14.63;8.30;;;5.50;52.70;;;;;;4988245;28;20460;-71
2022/03/11 07:19:03;;;;;;;13.00;8.63;;;5.70;55.50;;;;;;4988930;28;20180;-73
2022/03/11 07:21:28;;;;;;;13.30;7.80;;;5.60;55.80;;;;;;4987421;28;20206;-72
2022/03/11 07:23:56;;;;;;;12.93;8.40;;;5.40;55.50;;;;;;4987509;28;20209;-70
2022/03/11 07:26:22;;;;;;;14.30;9.10;;;5.30;56.50;;;;;;4987041;28;20194;-70
2022/03/11 07:28:48;;;;;;;13.63;8.60;;;5.30;56.60;;;;;;5001802;28;20457;-70
2022/03/11 07:31:14;;;;;;;13.83;8.57;;;5.30;57.00;;;;;;4989727;28;20466;-71
2022/03/11 07:33:39;;;;;;;15.63;8.37;;;5.20;57.10;;;;;;4989341;28;20468;-70
2022/03/11 07:36:05;;;;;;;20.23;8.87;;;5.30;57.70;;;;;;4987098;28;20213;-70
2022/03/11 07:38:31;;;;;;;14.93;8.70;;;5.30;57.60;;;;;;4986725;28;20248;-71
2022/03/11 07:40:58;;;;;;;9.73;7.17;;;5.30;56.10;;;;;;4986470;28;20277;-70
2022/03/11 07:43:25;;;;;;;11.73;7.50;;;5.40;58.70;;;;;;4984697;28;20174;-70
2022/03/11 07:45:51;;;;;;;11.47;7.40;;;5.40;53.70;;;;;;4990898;28;20437;-71
2022/03/11 07:48:16;;;;;;;15.57;8.07;;;5.40;55.40;;;;;;4993933;28;20410;-70
2022/03/11 07:50:42;;;;;;;14.70;8.60;;;5.40;55.20;;;;;;4983971;28;20217;-71
2022/03/11 07:53:07;;;;;;;13.10;8.40;;;5.90;54.60;;;;;;4987417;28;20187;-71
2022/03/11 07:55:33;;;;;;;14.23;8.43;;;5.60;54.60;;;;;;4983243;28;20276;-71
2022/03/11 07:57:58;;;;;;;18.10;7.97;;;5.90;54.50;;;;;;4984142;28;20268;-71
2022/03/11 08:00:24;;;;;;;12.77;8.03;;;5.60;55.10;;;;;;4985884;28;20200;-71
2022/03/11 08:02:49;;;;;;;14.23;7.83;;;5.70;53.80;;;;;;4986790;28;20186;-71
2022/03/11 08:05:15;;;;;;;15.37;8.87;;;5.70;54.60;;;;;;4987494;28;20253;-72
2022/03/11 08:07:44;;;;;;;10.93;7.53;;;5.70;54.30;;;;;;4993007;28;20279;-72
2022/03/11 08:10:10;;;;;;;11.80;7.50;;;5.70;53.70;;;;;;4985265;28;20514;-71
2022/03/11 08:12:36;;;;;;;13.30;8.00;;;5.80;53.60;;;;;;4998306;28;20443;-72
2022/03/11 08:15:02;;;;;;;15.00;8.50;;;5.80;52.60;;;;;;4988485;28;20334;-72
2022/03/11 08:17:28;;;;;;;14.13;8.00;;;5.90;53.90;;;;;;4988758;28;20808;-71
2022/03/11 08:19:53;;;;;;;15.87;8.10;;;6.00;54.00;;;;;;4988708;28;20449;-70
2022/03/11 08:22:19;;;;;;;14.07;8.10;;;6.00;51.80;;;;;;4995655;28;20175;-71
2022/03/11 08:24:45;;;;;;;16.17;8.30;;;6.10;52.10;;;;;;4992854;28;20179;-71
2022/03/11 08:27:11;;;;;;;11.20;7.57;;;6.20;51.70;;;;;;4989514;28;20219;-71
2022/03/11 08:29:37;;;;;;;12.10;8.00;;;6.30;52.70;;;;;;4989351;28;20244;-71
2022/03/11 08:32:03;;;;;;;15.10;7.93;;;6.30;51.40;;;;;;4990277;28;20442;-71
2022/03/11 08:34:29;;;;;;;13.43;7.87;;;6.40;51.80;;;;;;4977831;28;20433;-72
2022/03/11 08:36:55;;;;;;;11.03;7.40;;;6.50;49.60;;;;;;4984087;28;20456;-71
2022/03/11 08:39:20;;;;;;;12.07;8.20;;;6.50;49.50;;;;;;4983661;28;20185;-72
2022/03/11 08:41:46;;;;;;;13.10;8.03;;;6.60;50.50;;;;;;4981138;28;20602;-71
2022/03/11 08:44:12;;;;;;;12.70;7.80;;;6.80;50.10;;;;;;4983859;28;20257;-71
2022/03/11 08:46:38;;;;;;;12.43;8.43;;;7.20;47.20;;;;;;4987985;28;20561;-72
2022/03/11 08:49:06;;;;;;;17.93;8.47;;;8.70;39.30;;;;;;4988414;28;20391;-72
2022/03/11 08:51:32;;;;;;;16.93;7.90;;;10.90;38.60;;;;;;4986432;28;20182;-72
2022/03/11 08:53:58;;;;;;;14.30;9.10;;;12.80;35.30;;;;;;4988230;28;20507;-72
2022/03/11 08:56:23;;;;;;;11.53;9.03;;;14.00;26.40;;;;;;4988041;28;20380;-72
2022/03/11 08:58:49;;;;;;;12.50;9.67;;;14.80;23.00;;;;;;4988702;28;20175;-72
2022/03/11 09:01:16;;;;;;;16.83;10.77;;;15.30;20.60;;;;;;4987973;28;20266;-72
2022/03/11 09:03:42;;;;;;;18.47;12.17;;;16.20;19.50;;;;;;4989025;28;20481;-72
2022/03/11 09:06:07;;;;;;;16.30;11.77;;;17.10;19.50;;;;;;4986757;28;20504;-72
2022/03/11 09:08:32;;;;;;;17.40;12.37;;;17.90;14.40;;;;;;4987885;28;20185;-72
2022/03/11 09:10:58;;;;;;;16.20;11.73;;;17.90;12.90;;;;;;4986369;28;20194;-73
2022/03/11 09:13:23;;;;;;;17.30;11.63;;;17.70;13.70;;;;;;4989027;28;20233;-72
2022/03/11 09:15:49;;;;;;;15.50;11.60;;;18.30;9.50;;;;;;4986700;28;20214;-73
2022/03/11 09:18:15;;;;;;;17.13;12.50;;;18.30;11.10;;;;;;4987861;28;20287;-73
2022/03/11 09:20:40;;;;;;;19.60;12.60;;;18.30;10.60;;;;;;4988301;28;20185;-72
2022/03/11 09:23:07;;;;;;;16.13;12.60;;;18.30;11.00;;;;;;4972112;28;20263;-71
2022/03/11 09:25:32;;;;;;;16.00;12.30;;;19.50;8.90;;;;;;4983773;28;20189;-72
2022/03/11 09:27:58;;;;;;;14.77;11.60;;;19.90;7.40;;;;;;4981981;28;20441;-72
2022/03/11 09:30:24;;;;;;;15.53;11.77;;;20.30;5.70;;;;;;4991792;28;20205;-71
2022/03/11 09:32:49;;;;;;;17.13;12.83;;;20.40;5.70;;;;;;4992246;28;20175;-72
2022/03/11 09:35:18;;;;;;;19.30;12.50;;;20.90;3.80;;;;;;4980791;28;20210;-71
2022/03/11 09:37:43;;;;;;;16.37;12.17;;;20.80;2.90;;;;;;4987200;28;20206;-71
2022/03/11 09:40:12;;;;;;;15.00;11.93;;;20.50;4.20;;;;;;4991351;28;20745;-72
2022/03/11 09:42:37;;;;;;;17.73;12.00;;;21.10;2.20;;;;;;4989343;28;20178;-72
2022/03/11 09:45:04;;;;;;;14.23;11.30;;;20.70;2.90;;;;;;4986683;28;20414;-72
2022/03/11 09:47:31;;;;;;;18.17;11.97;;;20.30;4.00;;;;;;4987257;28;20210;-71
2022/03/11 09:49:57;;;;;;;14.77;11.53;;;20.60;3.50;;;;;;4984554;28;20437;-71
2022/03/11 09:52:25;;;;;;;20.47;12.50;;;21.00;5.30;;;;;;4997738;28;20513;-71
2022/03/11 09:54:51;;;;;;;19.50;12.57;;;21.40;1.40;;;;;;4993468;28;20199;-72
2022/03/11 09:57:18;;;;;;;15.67;11.40;;;22.30;1.00;;;;;;4987478;28;21026;-72
2022/03/11 09:59:44;;;;;;;14.10;11.17;;;22.40;1.00;;;;;;4984799;28;20695;-71
2022/03/11 10:02:14;;;;;;;17.30;12.60;;;22.70;1.00;;;;;;4985361;28;20547;-72
2022/03/11 10:04:51;;;;;;;17.40;13.33;;;23.00;1.00;;;;;;4984580;28;20388;-72
2022/03/11 10:07:22;;;;;;;17.90;12.90;;;23.40;1.00;;;;;;4987686;28;20202;-72
2022/03/11 10:09:47;;;;;;;18.30;12.50;;;23.90;1.00;;;;;;4989084;28;20372;-72
2022/03/11 10:12:23;;;;;;;16.23;12.87;;;24.10;1.00;;;;;;4985902;28;20353;-72
2022/03/11 10:15:01;;;;;;;14.80;11.40;;;24.30;1.00;;;;;;4987283;28;20241;-72
2022/03/11 10:17:27;;;;;;;17.00;12.90;;;25.20;1.00;;;;;;4986304;28;20222;-71
2022/03/11 10:20:02;;;;;;;17.00;11.83;;;25.90;1.00;;;;;;4991212;28;20179;-72
2022/03/11 10:22:29;;;;;;;14.68;12.13;;;26.50;1.00;;;;;;4990540;28;20197;-72
2022/03/11 10:24:55;;;;;;;15.73;12.35;;;27.10;1.00;;;;;;4989428;28;20373;-72
2022/03/11 10:27:23;;;;;;;13.60;12.10;;;26.80;1.00;;;;;;4998366;28;20288;-72
2022/03/11 10:29:50;;;;;;;18.75;13.50;;;26.00;1.00;;;;;;4990888;28;20265;-72
2022/03/11 10:32:27;;;;;;;45.67;14.88;;;26.30;1.00;;;;;;4978824;28;20502;-72
2022/03/11 10:34:53;;;;;;;36.13;15.23;;;26.30;1.00;;;;;;4990598;28;20201;-72
2022/03/11 10:37:19;;;;;;;16.73;12.40;;;26.40;1.00;;;;;;4988911;28;20203;-71
2022/03/11 10:39:46;;;;;;;18.60;14.43;;;27.10;1.00;;;;;;4990335;28;20633;-72
2022/03/11 10:42:12;;;;;;;16.23;12.20;;;27.70;1.00;;;;;;4990613;28;20171;-72
2022/03/11 10:44:38;;;;;;;16.27;13.43;;;27.90;1.00;;;;;;4990352;28;20538;-71
2022/03/11 10:47:19;;;;;;;18.23;14.73;;;27.10;1.00;;;;;;4989331;28;20237;-72
2022/03/11 10:49:50;;;;;;;20.20;13.77;;;26.60;1.00;;;;;;4989702;28;20178;-72
2022/03/11 10:52:29;;;;;;;24.25;17.10;;;26.30;1.00;;;;;;4989980;28;20677;-72
2022/03/11 10:54:54;;;;;;;18.10;13.00;;;26.20;1.00;;;;;;4989607;28;20553;-71
2022/03/11 10:57:21;;;;;;;17.92;12.90;;;26.60;1.00;;;;;;4990301;28;20190;-71
2022/03/11 10:59:46;;;;;;;16.10;11.93;;;26.20;1.00;;;;;;4990550;28;20196;-72
2022/03/11 11:02:12;;;;;;;18.98;13.13;;;26.40;1.00;;;;;;4995428;28;20170;-72
2022/03/11 11:04:39;;;;;;;25.15;12.95;;;27.70;1.00;;;;;;5002454;28;20233;-72
2022/03/11 11:07:06;;;;;;;17.60;12.55;;;28.50;1.00;;;;;;4993262;28;20209;-72
2022/03/11 11:09:31;;;;;;;18.23;12.98;;;28.50;1.00;;;;;;4993367;28;20189;-71
2022/03/11 11:11:57;;;;;;;20.15;11.63;;;28.30;1.00;;;;;;4988882;28;20179;-72
2022/03/11 11:14:23;;;;;;;16.23;11.77;;;29.00;1.00;;;;;;4990496;28;20221;-72
2022/03/11 11:16:50;;;;;;;16.23;12.77;;;29.20;1.00;;;;;;4989625;28;20202;-72
2022/03/11 11:19:20;;;;;;;26.63;13.00;;;28.80;1.00;;;;;;4989914;28;20709;-72
2022/03/11 11:21:51;;;;;;;27.15;13.07;;;29.00;1.00;;;;;;4986900;28;20218;-72
2022/03/11 11:24:21;;;;;;;15.55;11.50;;;29.50;1.00;;;;;;4996625;28;20712;-72
2022/03/11 11:26:50;;;;;;;16.83;12.48;;;29.80;1.00;;;;;;4982197;28;20227;-72
2022/03/11 11:29:25;;;;;;;48.15;15.68;;;29.90;1.00;;;;;;4989140;28;20179;-72
2022/03/11 11:31:51;;;;;;;19.48;12.35;;;30.60;1.00;;;;;;4988710;28;20269;-72
2022/03/11 11:34:37;;;;;;;22.95;12.77;;;30.90;1.00;;;;;;4989483;28;20273;-72
2022/03/11 11:37:06;;;;;;;14.95;12.88;;;29.90;1.00;;;;;;4986446;28;20190;-72
2022/03/11 11:39:40;;;;;;;17.17;12.13;;;29.20;1.00;;;;;;5015827;28;20683;-72
2022/03/11 11:42:11;;;;;;;14.52;12.80;;;29.60;1.00;;;;;;4980725;28;20182;-72
2022/03/11 11:44:39;;;;;;;15.18;12.90;;;29.40;1.00;;;;;;4990260;28;20648;-72
2022/03/11 11:47:16;;;;;;;16.73;12.57;;;29.60;1.00;;;;;;4990820;28;20226;-72
2022/03/11 11:49:52;;;;;;;43.92;15.75;;;30.60;1.00;;;;;;4991823;28;20174;-72
2022/03/11 11:52:35;;;;;;;15.07;12.27;;;31.20;1.00;;;;;;5004127;28;20246;-73
2022/03/11 11:55:13;;;;;;;15.45;12.95;;;31.20;1.00;;;;;;4989475;28;20200;-71
2022/03/11 11:57:41;;;;;;;17.45;12.18;;;30.10;1.00;;;;;;4997353;28;20216;-72
2022/03/11 12:00:27;;;;;;;15.82;13.35;;;29.40;1.00;;;;;;4990431;28;20517;-72
2022/03/11 12:02:54;;;;;;;15.05;12.32;;;28.90;1.00;;;;;;4994934;28;20217;-72
2022/03/11 12:05:48;;;;;;;55.80;16.13;;;28.70;1.00;;;;;;4998634;28;20267;-71
2022/03/11 12:08:39;;;;;;;19.05;13.30;;;28.80;1.00;;;;;;4992827;28;20178;-71
2022/03/11 12:11:05;;;;;;;18.10;12.45;;;29.60;1.00;;;;;;4991204;28;20179;-72
2022/03/11 12:13:36;;;;;;;18.88;13.15;;;30.50;1.00;;;;;;4993197;28;20178;-71
2022/03/11 12:16:03;;;;;;;17.85;12.07;;;30.80;1.00;;;;;;4977599;28;20206;-72
2022/03/11 12:18:38;;;;;;;16.25;12.02;;;32.10;1.00;;;;;;4987777;28;20232;-72
2022/03/11 12:21:04;;;;;;;15.35;13.45;;;32.70;1.00;;;;;;4986487;28;20196;-72
2022/03/11 12:23:33;;;;;;;18.45;13.07;;;31.60;1.00;;;;;;4984020;28;20179;-70
2022/03/11 12:26:07;;;;;;;17.25;12.50;;;31.90;1.00;;;;;;5000081;28;20170;-72
2022/03/11 12:28:35;;;;;;;15.77;12.63;;;32.30;1.00;;;;;;5000035;28;20177;-72
2022/03/11 12:31:21;;;;;;;14.55;12.05;;;32.60;1.00;;;;;;4989216;28;20190;-72
2022/03/11 12:33:48;;;;;;;13.68;12.00;;;32.40;1.00;;;;;;4989182;28;20198;-71
2022/03/11 12:36:20;;;;;;;15.27;12.75;;;32.10;1.00;;;;;;4987949;28;20558;-72
2022/03/11 12:38:47;;;;;;;13.88;12.07;;;31.10;1.00;;;;;;4986742;28;20171;-71
2022/03/11 12:41:14;;;;;;;15.65;12.55;;;30.40;1.00;;;;;;4986751;28;20182;-71